sensor_id;sensor_type;location;lat;lon;timestamp;P1;durP1;ratioP1;P2;durP2;ratioP2
57573;SDS011;68988;49.000;21.242;2023-12-29T00:00:13;1.75;;;1.65;;
57573;SDS011;68988;49.000;21.242;2023-12-29T00:02:39;2.25;;;2.15;;
57573;SDS011;68988;49.000;21.242;2023-12-29T00:05:12;2.08;;;1.98;;
57573;SDS011;68988;49.000;21.242;2023-12-29T00:07:37;2.00;;;1.90;;
57573;SDS011;68988;49.000;21.242;2023-12-29T00:10:03;2.15;;;2.05;;
57573;SDS011;68988;49.000;21.242;2023-12-29T00:12:29;2.53;;;1.90;;
57573;SDS011;68988;49.000;21.242;2023-12-29T00:14:54;2.10;;;2.00;;
57573;SDS011;68988;49.000;21.242;2023-12-29T00:17:20;2.10;;;1.90;;
57573;SDS011;68988;49.000;21.242;2023-12-29T00:19:45;2.72;;;2.25;;
57573;SDS011;68988;49.000;21.242;2023-12-29T00:22:10;4.05;;;1.90;;
57573;SDS011;68988;49.000;21.242;2023-12-29T00:24:36;1.92;;;1.83;;
57573;SDS011;68988;49.000;21.242;2023-12-29T00:27:01;1.75;;;1.65;;
57573;SDS011;68988;49.000;21.242;2023-12-29T00:29:27;2.25;;;2.15;;
57573;SDS011;68988;49.000;21.242;2023-12-29T00:31:57;2.10;;;2.00;;
57573;SDS011;68988;49.000;21.242;2023-12-29T00:34:22;2.15;;;2.05;;
57573;SDS011;68988;49.000;21.242;2023-12-29T00:36:48;4.95;;;1.83;;
57573;SDS011;68988;49.000;21.242;2023-12-29T00:39:13;2.10;;;2.00;;
57573;SDS011;68988;49.000;21.242;2023-12-29T00:41:39;3.47;;;2.38;;
57573;SDS011;68988;49.000;21.242;2023-12-29T00:44:06;2.35;;;2.15;;
57573;SDS011;68988;49.000;21.242;2023-12-29T00:46:32;1.90;;;1.80;;
57573;SDS011;68988;49.000;21.242;2023-12-29T00:48:57;2.20;;;2.10;;
57573;SDS011;68988;49.000;21.242;2023-12-29T00:51:22;3.30;;;2.00;;
57573;SDS011;68988;49.000;21.242;2023-12-29T00:53:47;1.90;;;1.80;;
57573;SDS011;68988;49.000;21.242;2023-12-29T00:56:13;1.98;;;1.88;;
57573;SDS011;68988;49.000;21.242;2023-12-29T00:58:38;2.10;;;2.00;;
57573;SDS011;68988;49.000;21.242;2023-12-29T01:01:05;2.22;;;2.13;;
57573;SDS011;68988;49.000;21.242;2023-12-29T01:03:33;2.60;;;1.90;;
57573;SDS011;68988;49.000;21.242;2023-12-29T01:05:58;2.20;;;2.10;;
57573;SDS011;68988;49.000;21.242;2023-12-29T01:08:24;2.47;;;2.28;;
57573;SDS011;68988;49.000;21.242;2023-12-29T01:10:49;2.20;;;2.10;;
57573;SDS011;68988;49.000;21.242;2023-12-29T01:13:14;2.20;;;2.10;;
57573;SDS011;68988;49.000;21.242;2023-12-29T01:15:39;2.22;;;2.13;;
57573;SDS011;68988;49.000;21.242;2023-12-29T01:18:09;2.08;;;1.98;;
57573;SDS011;68988;49.000;21.242;2023-12-29T01:20:34;2.40;;;2.20;;
57573;SDS011;68988;49.000;21.242;2023-12-29T01:23:00;2.35;;;2.15;;
57573;SDS011;68988;49.000;21.242;2023-12-29T01:25:25;2.10;;;2.00;;
57573;SDS011;68988;49.000;21.242;2023-12-29T01:27:50;2.22;;;2.03;;
57573;SDS011;68988;49.000;21.242;2023-12-29T01:30:16;2.10;;;2.00;;
57573;SDS011;68988;49.000;21.242;2023-12-29T01:32:41;2.40;;;2.30;;
57573;SDS011;68988;49.000;21.242;2023-12-29T01:35:06;2.40;;;2.30;;
57573;SDS011;68988;49.000;21.242;2023-12-29T01:37:32;1.80;;;1.70;;
57573;SDS011;68988;49.000;21.242;2023-12-29T01:39:58;1.95;;;1.85;;
57573;SDS011;68988;49.000;21.242;2023-12-29T01:42:23;2.10;;;2.00;;
57573;SDS011;68988;49.000;21.242;2023-12-29T01:44:48;2.13;;;2.03;;
57573;SDS011;68988;49.000;21.242;2023-12-29T01:47:19;2.20;;;2.10;;
57573;SDS011;68988;49.000;21.242;2023-12-29T01:49:45;2.13;;;1.77;;
57573;SDS011;68988;49.000;21.242;2023-12-29T01:52:13;2.40;;;2.08;;
57573;SDS011;68988;49.000;21.242;2023-12-29T01:54:40;2.45;;;2.25;;
57573;SDS011;68988;49.000;21.242;2023-12-29T01:57:07;2.03;;;1.92;;
57573;SDS011;68988;49.000;21.242;2023-12-29T01:59:33;2.00;;;1.90;;
57573;SDS011;68988;49.000;21.242;2023-12-29T02:02:00;1.95;;;1.85;;
57573;SDS011;68988;49.000;21.242;2023-12-29T02:04:26;2.05;;;1.95;;
57573;SDS011;68988;49.000;21.242;2023-12-29T02:06:55;1.95;;;1.85;;
57573;SDS011;68988;49.000;21.242;2023-12-29T02:09:21;2.03;;;1.90;;
57573;SDS011;68988;49.000;21.242;2023-12-29T02:11:47;2.45;;;2.25;;
57573;SDS011;68988;49.000;21.242;2023-12-29T02:14:13;2.28;;;2.13;;
57573;SDS011;68988;49.000;21.242;2023-12-29T02:16:48;2.10;;;2.00;;
57573;SDS011;68988;49.000;21.242;2023-12-29T02:22:03;2.38;;;2.20;;
57573;SDS011;68988;49.000;21.242;2023-12-29T02:24:29;2.10;;;2.00;;
57573;SDS011;68988;49.000;21.242;2023-12-29T02:26:57;2.20;;;2.10;;
57573;SDS011;68988;49.000;21.242;2023-12-29T02:29:34;2.00;;;1.90;;
57573;SDS011;68988;49.000;21.242;2023-12-29T02:32:03;2.38;;;2.28;;
57573;SDS011;68988;49.000;21.242;2023-12-29T02:34:33;2.08;;;1.98;;
57573;SDS011;68988;49.000;21.242;2023-12-29T02:37:00;2.10;;;2.00;;
57573;SDS011;68988;49.000;21.242;2023-12-29T02:39:27;1.90;;;1.80;;
57573;SDS011;68988;49.000;21.242;2023-12-29T02:41:53;2.60;;;2.00;;
57573;SDS011;68988;49.000;21.242;2023-12-29T02:44:18;2.20;;;2.10;;
57573;SDS011;68988;49.000;21.242;2023-12-29T02:46:44;2.30;;;2.03;;
57573;SDS011;68988;49.000;21.242;2023-12-29T02:49:09;2.05;;;1.95;;
57573;SDS011;68988;49.000;21.242;2023-12-29T02:51:37;2.13;;;2.03;;
57573;SDS011;68988;49.000;21.242;2023-12-29T02:54:03;2.55;;;2.40;;
57573;SDS011;68988;49.000;21.242;2023-12-29T02:56:30;2.17;;;2.08;;
57573;SDS011;68988;49.000;21.242;2023-12-29T02:58:56;2.60;;;2.42;;
57573;SDS011;68988;49.000;21.242;2023-12-29T03:01:21;2.33;;;2.22;;
57573;SDS011;68988;49.000;21.242;2023-12-29T03:03:46;2.20;;;2.10;;
57573;SDS011;68988;49.000;21.242;2023-12-29T03:06:12;2.20;;;2.10;;
57573;SDS011;68988;49.000;21.242;2023-12-29T03:08:37;1.85;;;1.75;;
57573;SDS011;68988;49.000;21.242;2023-12-29T03:11:03;2.28;;;2.08;;
57573;SDS011;68988;49.000;21.242;2023-12-29T03:13:28;2.15;;;2.05;;
57573;SDS011;68988;49.000;21.242;2023-12-29T03:15:53;2.03;;;1.92;;
57573;SDS011;68988;49.000;21.242;2023-12-29T03:18:19;2.60;;;2.40;;
57573;SDS011;68988;49.000;21.242;2023-12-29T03:20:44;2.13;;;2.03;;
57573;SDS011;68988;49.000;21.242;2023-12-29T03:23:09;2.28;;;2.17;;
57573;SDS011;68988;49.000;21.242;2023-12-29T03:25:35;2.22;;;2.13;;
57573;SDS011;68988;49.000;21.242;2023-12-29T03:28:00;2.20;;;2.10;;
57573;SDS011;68988;49.000;21.242;2023-12-29T03:30:25;2.25;;;2.15;;
57573;SDS011;68988;49.000;21.242;2023-12-29T03:32:51;2.40;;;2.30;;
57573;SDS011;68988;49.000;21.242;2023-12-29T03:35:16;2.25;;;2.15;;
57573;SDS011;68988;49.000;21.242;2023-12-29T03:37:42;2.33;;;2.17;;
57573;SDS011;68988;49.000;21.242;2023-12-29T03:40:07;2.17;;;2.08;;
57573;SDS011;68988;49.000;21.242;2023-12-29T03:42:33;2.00;;;1.90;;
57573;SDS011;68988;49.000;21.242;2023-12-29T03:44:59;2.20;;;2.10;;
57573;SDS011;68988;49.000;21.242;2023-12-29T03:47:24;2.10;;;2.00;;
57573;SDS011;68988;49.000;21.242;2023-12-29T03:49:49;2.15;;;2.05;;
57573;SDS011;68988;49.000;21.242;2023-12-29T03:52:15;2.60;;;2.38;;
57573;SDS011;68988;49.000;21.242;2023-12-29T03:54:40;2.13;;;2.03;;
57573;SDS011;68988;49.000;21.242;2023-12-29T03:57:05;2.55;;;2.10;;
57573;SDS011;68988;49.000;21.242;2023-12-29T03:59:31;2.00;;;1.90;;
57573;SDS011;68988;49.000;21.242;2023-12-29T04:01:56;3.65;;;2.20;;
57573;SDS011;68988;49.000;21.242;2023-12-29T04:04:21;2.53;;;2.42;;
57573;SDS011;68988;49.000;21.242;2023-12-29T04:06:47;2.05;;;1.95;;
57573;SDS011;68988;49.000;21.242;2023-12-29T04:09:12;2.40;;;2.30;;
57573;SDS011;68988;49.000;21.242;2023-12-29T04:11:38;2.25;;;2.15;;
57573;SDS011;68988;49.000;21.242;2023-12-29T04:14:03;2.40;;;2.20;;
57573;SDS011;68988;49.000;21.242;2023-12-29T04:16:28;2.28;;;2.17;;
57573;SDS011;68988;49.000;21.242;2023-12-29T04:18:54;2.50;;;2.40;;
57573;SDS011;68988;49.000;21.242;2023-12-29T04:21:19;2.58;;;2.47;;
57573;SDS011;68988;49.000;21.242;2023-12-29T04:23:44;2.15;;;2.05;;
57573;SDS011;68988;49.000;21.242;2023-12-29T04:26:10;2.30;;;2.20;;
57573;SDS011;68988;49.000;21.242;2023-12-29T04:28:35;2.33;;;2.22;;
57573;SDS011;68988;49.000;21.242;2023-12-29T04:31:00;2.20;;;2.00;;
57573;SDS011;68988;49.000;21.242;2023-12-29T04:33:26;2.08;;;1.98;;
57573;SDS011;68988;49.000;21.242;2023-12-29T04:35:51;3.88;;;2.50;;
57573;SDS011;68988;49.000;21.242;2023-12-29T04:38:17;2.08;;;1.98;;
57573;SDS011;68988;49.000;21.242;2023-12-29T04:40:44;2.25;;;2.13;;
57573;SDS011;68988;49.000;21.242;2023-12-29T04:43:09;2.25;;;2.15;;
57573;SDS011;68988;49.000;21.242;2023-12-29T04:45:35;2.35;;;2.20;;
57573;SDS011;68988;49.000;21.242;2023-12-29T04:48:00;2.15;;;2.05;;
57573;SDS011;68988;49.000;21.242;2023-12-29T04:50:25;2.25;;;2.15;;
57573;SDS011;68988;49.000;21.242;2023-12-29T04:52:51;2.17;;;2.08;;
57573;SDS011;68988;49.000;21.242;2023-12-29T04:55:16;2.20;;;2.10;;
57573;SDS011;68988;49.000;21.242;2023-12-29T04:57:42;2.47;;;2.38;;
57573;SDS011;68988;49.000;21.242;2023-12-29T05:00:07;2.58;;;2.42;;
57573;SDS011;68988;49.000;21.242;2023-12-29T05:02:33;3.00;;;2.10;;
57573;SDS011;68988;49.000;21.242;2023-12-29T05:04:58;2.20;;;2.10;;
57573;SDS011;68988;49.000;21.242;2023-12-29T05:07:23;2.30;;;2.10;;
57573;SDS011;68988;49.000;21.242;2023-12-29T05:09:49;2.17;;;2.08;;
57573;SDS011;68988;49.000;21.242;2023-12-29T05:12:14;2.17;;;1.98;;
57573;SDS011;68988;49.000;21.242;2023-12-29T05:14:40;1.92;;;1.83;;
57573;SDS011;68988;49.000;21.242;2023-12-29T05:17:05;2.40;;;2.30;;
57573;SDS011;68988;49.000;21.242;2023-12-29T05:19:31;3.05;;;2.47;;
57573;SDS011;68988;49.000;21.242;2023-12-29T05:21:57;2.03;;;1.92;;
57573;SDS011;68988;49.000;21.242;2023-12-29T05:24:22;6.22;;;2.38;;
57573;SDS011;68988;49.000;21.242;2023-12-29T05:26:47;2.42;;;2.33;;
57573;SDS011;68988;49.000;21.242;2023-12-29T05:29:13;2.53;;;2.40;;
57573;SDS011;68988;49.000;21.242;2023-12-29T05:31:38;2.28;;;2.17;;
57573;SDS011;68988;49.000;21.242;2023-12-29T05:34:04;2.45;;;2.35;;
57573;SDS011;68988;49.000;21.242;2023-12-29T05:36:29;2.60;;;2.40;;
57573;SDS011;68988;49.000;21.242;2023-12-29T05:38:55;2.60;;;2.40;;
57573;SDS011;68988;49.000;21.242;2023-12-29T05:41:20;2.17;;;2.03;;
57573;SDS011;68988;49.000;21.242;2023-12-29T05:43:46;2.10;;;2.00;;
57573;SDS011;68988;49.000;21.242;2023-12-29T05:46:11;4.20;;;3.90;;
57573;SDS011;68988;49.000;21.242;2023-12-29T05:48:37;21.42;;;13.02;;
57573;SDS011;68988;49.000;21.242;2023-12-29T05:51:10;17.23;;;14.93;;
57573;SDS011;68988;49.000;21.242;2023-12-29T05:53:37;18.50;;;15.75;;
57573;SDS011;68988;49.000;21.242;2023-12-29T05:56:04;18.88;;;15.75;;
57573;SDS011;68988;49.000;21.242;2023-12-29T05:58:30;10.85;;;8.30;;
57573;SDS011;68988;49.000;21.242;2023-12-29T06:00:55;8.00;;;7.35;;
57573;SDS011;68988;49.000;21.242;2023-12-29T06:03:21;7.68;;;6.95;;
57573;SDS011;68988;49.000;21.242;2023-12-29T06:05:46;9.82;;;6.50;;
57573;SDS011;68988;49.000;21.242;2023-12-29T06:08:11;8.98;;;6.15;;
57573;SDS011;68988;49.000;21.242;2023-12-29T06:10:37;6.50;;;6.10;;
57573;SDS011;68988;49.000;21.242;2023-12-29T06:13:02;6.30;;;5.72;;
57573;SDS011;68988;49.000;21.242;2023-12-29T06:15:28;6.47;;;5.85;;
57573;SDS011;68988;49.000;21.242;2023-12-29T06:17:53;7.75;;;5.60;;
57573;SDS011;68988;49.000;21.242;2023-12-29T06:20:19;6.03;;;5.43;;
57573;SDS011;68988;49.000;21.242;2023-12-29T06:22:45;6.80;;;5.20;;
57573;SDS011;68988;49.000;21.242;2023-12-29T06:25:11;5.90;;;5.30;;
57573;SDS011;68988;49.000;21.242;2023-12-29T06:27:37;5.38;;;4.97;;
57573;SDS011;68988;49.000;21.242;2023-12-29T06:30:06;7.00;;;4.85;;
57573;SDS011;68988;49.000;21.242;2023-12-29T06:32:33;4.65;;;4.22;;
57573;SDS011;68988;49.000;21.242;2023-12-29T06:34:58;5.05;;;4.75;;
57573;SDS011;68988;49.000;21.242;2023-12-29T06:37:24;5.05;;;4.60;;
57573;SDS011;68988;49.000;21.242;2023-12-29T06:39:49;7.15;;;4.57;;
57573;SDS011;68988;49.000;21.242;2023-12-29T06:42:14;5.35;;;4.80;;
57573;SDS011;68988;49.000;21.242;2023-12-29T06:44:40;4.95;;;4.55;;
57573;SDS011;68988;49.000;21.242;2023-12-29T06:47:05;5.15;;;4.63;;
57573;SDS011;68988;49.000;21.242;2023-12-29T06:49:32;6.65;;;4.75;;
57573;SDS011;68988;49.000;21.242;2023-12-29T06:51:59;4.82;;;4.50;;
57573;SDS011;68988;49.000;21.242;2023-12-29T06:54:24;4.65;;;4.35;;
57573;SDS011;68988;49.000;21.242;2023-12-29T06:56:49;5.32;;;4.28;;
57573;SDS011;68988;49.000;21.242;2023-12-29T06:59:15;6.80;;;4.28;;
57573;SDS011;68988;49.000;21.242;2023-12-29T07:01:41;4.68;;;4.28;;
57573;SDS011;68988;49.000;21.242;2023-12-29T07:04:06;4.10;;;3.80;;
57573;SDS011;68988;49.000;21.242;2023-12-29T07:06:35;6.68;;;4.30;;
57573;SDS011;68988;49.000;21.242;2023-12-29T07:09:00;4.72;;;4.43;;
57573;SDS011;68988;49.000;21.242;2023-12-29T07:11:26;4.78;;;4.18;;
57573;SDS011;68988;49.000;21.242;2023-12-29T07:13:52;4.28;;;4.00;;
57573;SDS011;68988;49.000;21.242;2023-12-29T07:16:17;4.30;;;4.00;;
57573;SDS011;68988;49.000;21.242;2023-12-29T07:18:44;4.50;;;4.18;;
57573;SDS011;68988;49.000;21.242;2023-12-29T07:21:10;3.97;;;3.78;;
57573;SDS011;68988;49.000;21.242;2023-12-29T07:23:37;4.35;;;3.85;;
57573;SDS011;68988;49.000;21.242;2023-12-29T07:26:03;4.43;;;4.13;;
57573;SDS011;68988;49.000;21.242;2023-12-29T07:28:28;4.53;;;4.13;;
57573;SDS011;68988;49.000;21.242;2023-12-29T07:30:53;4.70;;;4.40;;
57573;SDS011;68988;49.000;21.242;2023-12-29T07:33:19;4.18;;;3.88;;
57573;SDS011;68988;49.000;21.242;2023-12-29T07:35:44;4.07;;;3.75;;
57573;SDS011;68988;49.000;21.242;2023-12-29T07:38:09;3.67;;;3.47;;
57573;SDS011;68988;49.000;21.242;2023-12-29T07:40:35;4.55;;;4.00;;
57573;SDS011;68988;49.000;21.242;2023-12-29T07:43:00;4.35;;;4.05;;
57573;SDS011;68988;49.000;21.242;2023-12-29T07:45:25;3.80;;;3.60;;
57573;SDS011;68988;49.000;21.242;2023-12-29T07:47:51;4.28;;;3.97;;
57573;SDS011;68988;49.000;21.242;2023-12-29T07:50:16;8.52;;;4.00;;
57573;SDS011;68988;49.000;21.242;2023-12-29T07:52:42;4.18;;;3.88;;
57573;SDS011;68988;49.000;21.242;2023-12-29T07:55:09;4.10;;;3.80;;
57573;SDS011;68988;49.000;21.242;2023-12-29T07:57:34;4.25;;;3.95;;
57573;SDS011;68988;49.000;21.242;2023-12-29T08:00:00;5.03;;;3.53;;
57573;SDS011;68988;49.000;21.242;2023-12-29T08:02:26;8.40;;;3.70;;
57573;SDS011;68988;49.000;21.242;2023-12-29T08:04:52;4.30;;;4.00;;
57573;SDS011;68988;49.000;21.242;2023-12-29T08:07:19;4.22;;;3.92;;
57573;SDS011;68988;49.000;21.242;2023-12-29T08:09:44;3.90;;;3.50;;
57573;SDS011;68988;49.000;21.242;2023-12-29T08:12:10;4.10;;;3.78;;
57573;SDS011;68988;49.000;21.242;2023-12-29T08:14:35;5.40;;;4.22;;
57573;SDS011;68988;49.000;21.242;2023-12-29T08:17:01;4.18;;;3.80;;
57573;SDS011;68988;49.000;21.242;2023-12-29T08:19:26;3.95;;;3.58;;
57573;SDS011;68988;49.000;21.242;2023-12-29T08:21:52;3.72;;;3.53;;
57573;SDS011;68988;49.000;21.242;2023-12-29T08:24:17;3.78;;;3.58;;
57573;SDS011;68988;49.000;21.242;2023-12-29T08:26:45;5.03;;;3.28;;
57573;SDS011;68988;49.000;21.242;2023-12-29T08:29:12;4.03;;;3.83;;
57573;SDS011;68988;49.000;21.242;2023-12-29T08:31:38;3.90;;;3.70;;
57573;SDS011;68988;49.000;21.242;2023-12-29T08:34:03;4.20;;;3.90;;
57573;SDS011;68988;49.000;21.242;2023-12-29T08:36:28;3.97;;;3.75;;
57573;SDS011;68988;49.000;21.242;2023-12-29T08:38:53;4.38;;;3.63;;
57573;SDS011;68988;49.000;21.242;2023-12-29T08:41:19;3.70;;;3.50;;
57573;SDS011;68988;49.000;21.242;2023-12-29T08:43:44;4.07;;;3.78;;
57573;SDS011;68988;49.000;21.242;2023-12-29T08:46:09;4.25;;;4.03;;
57573;SDS011;68988;49.000;21.242;2023-12-29T08:48:35;6.32;;;3.50;;
57573;SDS011;68988;49.000;21.242;2023-12-29T08:51:00;3.53;;;3.30;;
57573;SDS011;68988;49.000;21.242;2023-12-29T08:53:26;3.80;;;3.50;;
57573;SDS011;68988;49.000;21.242;2023-12-29T08:55:52;4.95;;;3.78;;
57573;SDS011;68988;49.000;21.242;2023-12-29T08:58:17;3.42;;;3.22;;
57573;SDS011;68988;49.000;21.242;2023-12-29T09:00:42;4.18;;;3.97;;
57573;SDS011;68988;49.000;21.242;2023-12-29T09:03:08;3.42;;;3.22;;
57573;SDS011;68988;49.000;21.242;2023-12-29T09:05:33;3.75;;;3.50;;
57573;SDS011;68988;49.000;21.242;2023-12-29T09:07:59;3.90;;;3.63;;
57573;SDS011;68988;49.000;21.242;2023-12-29T09:10:24;3.55;;;3.35;;
57573;SDS011;68988;49.000;21.242;2023-12-29T09:12:50;3.38;;;3.17;;
57573;SDS011;68988;49.000;21.242;2023-12-29T09:15:15;3.90;;;3.70;;
57573;SDS011;68988;49.000;21.242;2023-12-29T09:17:41;4.80;;;3.28;;
57573;SDS011;68988;49.000;21.242;2023-12-29T09:20:06;3.58;;;3.35;;
57573;SDS011;68988;49.000;21.242;2023-12-29T09:22:34;4.15;;;3.85;;
57573;SDS011;68988;49.000;21.242;2023-12-29T09:24:59;4.15;;;3.85;;
57573;SDS011;68988;49.000;21.242;2023-12-29T09:27:24;4.13;;;3.42;;
57573;SDS011;68988;49.000;21.242;2023-12-29T09:29:50;3.65;;;3.35;;
57573;SDS011;68988;49.000;21.242;2023-12-29T09:32:15;3.25;;;3.05;;
57573;SDS011;68988;49.000;21.242;2023-12-29T09:34:41;3.60;;;3.30;;
57573;SDS011;68988;49.000;21.242;2023-12-29T09:37:07;3.60;;;3.40;;
57573;SDS011;68988;49.000;21.242;2023-12-29T09:39:33;3.80;;;3.60;;
57573;SDS011;68988;49.000;21.242;2023-12-29T09:41:58;3.40;;;3.17;;
57573;SDS011;68988;49.000;21.242;2023-12-29T09:44:25;3.33;;;3.13;;
57573;SDS011;68988;49.000;21.242;2023-12-29T09:46:53;3.83;;;3.53;;
57573;SDS011;68988;49.000;21.242;2023-12-29T09:49:20;3.72;;;3.53;;
57573;SDS011;68988;49.000;21.242;2023-12-29T09:51:46;4.45;;;3.45;;
57573;SDS011;68988;49.000;21.242;2023-12-29T09:54:12;3.70;;;3.50;;
57573;SDS011;68988;49.000;21.242;2023-12-29T09:56:38;4.10;;;3.80;;
57573;SDS011;68988;49.000;21.242;2023-12-29T09:59:04;4.07;;;3.70;;
57573;SDS011;68988;49.000;21.242;2023-12-29T10:01:29;3.50;;;3.30;;
57573;SDS011;68988;49.000;21.242;2023-12-29T10:03:56;3.58;;;3.30;;
57573;SDS011;68988;49.000;21.242;2023-12-29T10:06:25;3.40;;;3.20;;
57573;SDS011;68988;49.000;21.242;2023-12-29T10:08:51;3.92;;;3.67;;
57573;SDS011;68988;49.000;21.242;2023-12-29T10:11:18;3.50;;;3.30;;
57573;SDS011;68988;49.000;21.242;2023-12-29T10:13:46;4.10;;;3.70;;
57573;SDS011;68988;49.000;21.242;2023-12-29T10:16:27;3.25;;;3.05;;
57573;SDS011;68988;49.000;21.242;2023-12-29T10:19:45;3.60;;;3.40;;
57573;SDS011;68988;49.000;21.242;2023-12-29T10:24:45;3.50;;;3.30;;
57573;SDS011;68988;49.000;21.242;2023-12-29T10:27:12;3.75;;;3.38;;
57573;SDS011;68988;49.000;21.242;2023-12-29T10:29:38;3.78;;;3.47;;
57573;SDS011;68988;49.000;21.242;2023-12-29T10:32:03;6.72;;;3.78;;
57573;SDS011;68988;49.000;21.242;2023-12-29T10:34:29;3.70;;;3.42;;
57573;SDS011;68988;49.000;21.242;2023-12-29T10:36:55;5.38;;;3.28;;
57573;SDS011;68988;49.000;21.242;2023-12-29T10:39:21;3.53;;;3.33;;
57573;SDS011;68988;49.000;21.242;2023-12-29T10:41:47;3.53;;;3.13;;
57573;SDS011;68988;49.000;21.242;2023-12-29T10:44:13;3.30;;;3.03;;
57573;SDS011;68988;49.000;21.242;2023-12-29T10:46:38;3.83;;;3.63;;
57573;SDS011;68988;49.000;21.242;2023-12-29T10:49:07;3.42;;;3.05;;
57573;SDS011;68988;49.000;21.242;2023-12-29T10:51:36;3.97;;;3.72;;
57573;SDS011;68988;49.000;21.242;2023-12-29T10:54:02;3.53;;;3.33;;
57573;SDS011;68988;49.000;21.242;2023-12-29T10:56:28;3.80;;;3.60;;
57573;SDS011;68988;49.000;21.242;2023-12-29T10:59:04;3.80;;;3.55;;
57573;SDS011;68988;49.000;21.242;2023-12-29T11:01:31;3.40;;;3.20;;
57573;SDS011;68988;49.000;21.242;2023-12-29T11:04:06;8.88;;;3.42;;
57573;SDS011;68988;49.000;21.242;2023-12-29T11:06:40;3.50;;;3.30;;
57573;SDS011;68988;49.000;21.242;2023-12-29T11:09:09;6.60;;;2.97;;
57573;SDS011;68988;49.000;21.242;2023-12-29T11:11:35;3.47;;;3.28;;
57573;SDS011;68988;49.000;21.242;2023-12-29T11:14:02;4.63;;;3.33;;
57573;SDS011;68988;49.000;21.242;2023-12-29T11:16:28;3.42;;;3.22;;
57573;SDS011;68988;49.000;21.242;2023-12-29T11:18:54;3.97;;;3.42;;
57573;SDS011;68988;49.000;21.242;2023-12-29T11:21:22;3.35;;;3.15;;
57573;SDS011;68988;49.000;21.242;2023-12-29T11:23:51;3.20;;;3.00;;
57573;SDS011;68988;49.000;21.242;2023-12-29T11:26:17;4.22;;;3.22;;
57573;SDS011;68988;49.000;21.242;2023-12-29T11:28:49;4.45;;;3.60;;
57573;SDS011;68988;49.000;21.242;2023-12-29T11:31:16;3.30;;;3.10;;
57573;SDS011;68988;49.000;21.242;2023-12-29T11:34:03;3.20;;;3.00;;
57573;SDS011;68988;49.000;21.242;2023-12-29T11:36:40;4.80;;;3.25;;
57573;SDS011;68988;49.000;21.242;2023-12-29T11:39:19;3.47;;;3.20;;
57573;SDS011;68988;49.000;21.242;2023-12-29T11:42:05;6.13;;;3.40;;
57573;SDS011;68988;49.000;21.242;2023-12-29T11:44:37;13.35;;;3.53;;
57573;SDS011;68988;49.000;21.242;2023-12-29T11:47:03;5.53;;;3.28;;
57573;SDS011;68988;49.000;21.242;2023-12-29T11:49:42;6.55;;;3.53;;
57573;SDS011;68988;49.000;21.242;2023-12-29T11:52:34;4.35;;;3.38;;
57573;SDS011;68988;49.000;21.242;2023-12-29T11:55:10;3.47;;;3.22;;
57573;SDS011;68988;49.000;21.242;2023-12-29T11:57:36;3.70;;;3.22;;
57573;SDS011;68988;49.000;21.242;2023-12-29T12:00:03;3.50;;;3.05;;
57573;SDS011;68988;49.000;21.242;2023-12-29T12:02:30;3.42;;;3.17;;
57573;SDS011;68988;49.000;21.242;2023-12-29T12:04:56;4.60;;;3.40;;
57573;SDS011;68988;49.000;21.242;2023-12-29T12:09:47;5.78;;;3.15;;
57573;SDS011;68988;49.000;21.242;2023-12-29T12:12:14;3.22;;;3.03;;
57573;SDS011;68988;49.000;21.242;2023-12-29T12:14:59;4.30;;;3.42;;
57573;SDS011;68988;49.000;21.242;2023-12-29T12:17:30;3.60;;;3.15;;
57573;SDS011;68988;49.000;21.242;2023-12-29T12:19:58;4.03;;;3.65;;
57573;SDS011;68988;49.000;21.242;2023-12-29T12:22:36;3.60;;;3.30;;
57573;SDS011;68988;49.000;21.242;2023-12-29T12:25:02;3.42;;;3.22;;
57573;SDS011;68988;49.000;21.242;2023-12-29T12:27:29;3.70;;;3.40;;
57573;SDS011;68988;49.000;21.242;2023-12-29T12:29:57;3.65;;;3.42;;
57573;SDS011;68988;49.000;21.242;2023-12-29T12:32:28;3.47;;;3.28;;
57573;SDS011;68988;49.000;21.242;2023-12-29T12:34:54;3.25;;;3.05;;
57573;SDS011;68988;49.000;21.242;2023-12-29T12:37:23;3.72;;;3.42;;
57573;SDS011;68988;49.000;21.242;2023-12-29T12:39:51;3.50;;;3.30;;
57573;SDS011;68988;49.000;21.242;2023-12-29T12:42:16;3.22;;;2.78;;
57573;SDS011;68988;49.000;21.242;2023-12-29T12:44:49;3.55;;;3.35;;
57573;SDS011;68988;49.000;21.242;2023-12-29T12:47:24;3.50;;;3.20;;
57573;SDS011;68988;49.000;21.242;2023-12-29T12:49:52;5.05;;;3.38;;
57573;SDS011;68988;49.000;21.242;2023-12-29T12:52:17;3.40;;;3.10;;
57573;SDS011;68988;49.000;21.242;2023-12-29T12:54:43;3.58;;;3.38;;
57573;SDS011;68988;49.000;21.242;2023-12-29T12:57:08;3.60;;;3.30;;
57573;SDS011;68988;49.000;21.242;2023-12-29T12:59:34;3.28;;;3.08;;
57573;SDS011;68988;49.000;21.242;2023-12-29T13:02:01;3.38;;;3.17;;
57573;SDS011;68988;49.000;21.242;2023-12-29T13:04:27;3.88;;;3.53;;
57573;SDS011;68988;49.000;21.242;2023-12-29T13:06:53;3.50;;;3.20;;
57573;SDS011;68988;49.000;21.242;2023-12-29T13:09:18;4.50;;;3.60;;
57573;SDS011;68988;49.000;21.242;2023-12-29T13:11:44;3.40;;;3.10;;
57573;SDS011;68988;49.000;21.242;2023-12-29T13:14:19;4.00;;;3.38;;
57573;SDS011;68988;49.000;21.242;2023-12-29T13:16:47;3.88;;;3.58;;
57573;SDS011;68988;49.000;21.242;2023-12-29T13:19:17;4.25;;;3.55;;
57573;SDS011;68988;49.000;21.242;2023-12-29T13:21:50;5.22;;;3.42;;
57573;SDS011;68988;49.000;21.242;2023-12-29T13:24:19;3.78;;;3.47;;
57573;SDS011;68988;49.000;21.242;2023-12-29T13:26:45;3.90;;;3.70;;
57573;SDS011;68988;49.000;21.242;2023-12-29T13:29:20;3.80;;;3.50;;
57573;SDS011;68988;49.000;21.242;2023-12-29T13:31:50;3.60;;;3.30;;
57573;SDS011;68988;49.000;21.242;2023-12-29T13:34:23;3.90;;;3.60;;
57573;SDS011;68988;49.000;21.242;2023-12-29T13:37:35;4.20;;;3.53;;
57573;SDS011;68988;49.000;21.242;2023-12-29T13:43:02;5.00;;;3.30;;
57573;SDS011;68988;49.000;21.242;2023-12-29T13:45:31;6.32;;;3.65;;
57573;SDS011;68988;49.000;21.242;2023-12-29T13:47:57;4.20;;;4.00;;
57573;SDS011;68988;49.000;21.242;2023-12-29T13:50:24;3.63;;;3.42;;
57573;SDS011;68988;49.000;21.242;2023-12-29T13:52:50;3.20;;;3.00;;
57573;SDS011;68988;49.000;21.242;2023-12-29T13:55:22;3.65;;;3.45;;
57573;SDS011;68988;49.000;21.242;2023-12-29T13:57:49;3.92;;;3.60;;
57573;SDS011;68988;49.000;21.242;2023-12-29T14:02:46;3.85;;;3.55;;
57573;SDS011;68988;49.000;21.242;2023-12-29T14:05:19;4.00;;;3.70;;
57573;SDS011;68988;49.000;21.242;2023-12-29T14:10:32;3.58;;;3.38;;
57573;SDS011;68988;49.000;21.242;2023-12-29T14:13:08;4.32;;;3.50;;
57573;SDS011;68988;49.000;21.242;2023-12-29T14:15:37;3.85;;;3.40;;
57573;SDS011;68988;49.000;21.242;2023-12-29T14:18:09;4.10;;;3.72;;
57573;SDS011;68988;49.000;21.242;2023-12-29T14:20:49;4.18;;;3.80;;
57573;SDS011;68988;49.000;21.242;2023-12-29T14:23:16;3.60;;;3.30;;
57573;SDS011;68988;49.000;21.242;2023-12-29T14:25:43;3.40;;;3.08;;
57573;SDS011;68988;49.000;21.242;2023-12-29T14:28:19;3.60;;;3.30;;
57573;SDS011;68988;49.000;21.242;2023-12-29T14:30:48;3.63;;;3.33;;
57573;SDS011;68988;49.000;21.242;2023-12-29T14:33:13;4.03;;;3.72;;
57573;SDS011;68988;49.000;21.242;2023-12-29T14:35:39;4.05;;;3.75;;
57573;SDS011;68988;49.000;21.242;2023-12-29T14:38:04;4.20;;;3.90;;
57573;SDS011;68988;49.000;21.242;2023-12-29T14:40:30;3.67;;;3.38;;
57573;SDS011;68988;49.000;21.242;2023-12-29T14:42:55;3.40;;;3.20;;
57573;SDS011;68988;49.000;21.242;2023-12-29T14:45:21;3.90;;;3.47;;
57573;SDS011;68988;49.000;21.242;2023-12-29T14:47:46;3.60;;;3.33;;